createdAt,value
2023-12-23T00:05:20.973Z,96224.95
2023-12-23T00:15:25.146Z,96234.77
2023-12-23T00:25:28.943Z,96245.17
2023-12-23T00:35:32.843Z,96256.80
2023-12-23T00:45:37.559Z,96260.88
2023-12-23T00:55:41.781Z,96269.33
2023-12-23T01:05:45.707Z,96270.63
2023-12-23T01:15:49.824Z,96294.25
2023-12-23T01:25:53.923Z,96292.96
2023-12-23T01:35:57.941Z,96306.62
2023-12-23T01:46:03.028Z,96329.67
2023-12-23T01:56:07.894Z,96339.63
2023-12-23T02:06:11.831Z,96344.24
2023-12-23T02:16:17.225Z,96336.99
2023-12-23T02:26:25.124Z,96347.40
2023-12-23T02:36:29.076Z,96356.90
2023-12-23T02:46:33.692Z,96355.78
2023-12-23T02:56:37.577Z,96371.47
2023-12-23T03:06:41.417Z,96385.34
2023-12-23T03:16:45.290Z,96405.98
2023-12-23T03:26:49.270Z,96424.50
2023-12-23T03:36:53.196Z,96429.52
2023-12-23T03:46:57.888Z,96450.33
2023-12-23T03:57:02.102Z,96456.04
2023-12-23T04:07:06.643Z,96458.31
2023-12-23T04:17:10.668Z,96472.95
2023-12-23T04:27:14.976Z,96488.52
2023-12-23T04:37:19.284Z,96505.50
2023-12-23T04:47:23.898Z,96526.04
2023-12-23T04:57:29.586Z,96536.66
2023-12-23T05:07:36.088Z,96544.98
2023-12-23T05:17:40.214Z,96573.52
2023-12-23T05:27:45.576Z,96589.29
2023-12-23T05:37:49.878Z,96608.52
2023-12-23T05:47:54.843Z,96633.30
2023-12-23T05:57:58.945Z,96659.79
2023-12-23T06:08:03.891Z,96645.45
2023-12-23T06:18:08.122Z,96676.63
2023-12-23T06:28:12.136Z,96682.36
2023-12-23T06:38:17.572Z,96708.05
2023-12-23T06:48:21.656Z,96721.27
2023-12-23T06:58:28.372Z,96729.39
2023-12-23T07:08:32.346Z,96742.35
2023-12-23T07:18:36.336Z,96755.70
2023-12-23T07:28:40.320Z,96764.71
2023-12-23T07:38:44.465Z,96767.25
2023-12-23T07:48:48.683Z,96777.27
2023-12-23T07:58:53.777Z,96793.52
2023-12-23T08:08:57.660Z,96791.87
2023-12-23T08:19:08.380Z,96809.52
2023-12-23T08:29:12.211Z,96818.41
2023-12-23T08:39:16.257Z,96837.33
2023-12-23T08:49:21.357Z,96854.52
2023-12-23T08:59:25.391Z,96851.52
2023-12-23T09:09:29.393Z,96862.79
2023-12-23T09:19:34.113Z,96858.13
2023-12-23T09:29:38.078Z,96868.48
2023-12-23T09:39:41.885Z,96864.52
2023-12-23T09:49:45.961Z,96871.71
2023-12-23T09:59:52.463Z,96867.23
2023-12-23T10:09:56.327Z,96875.49
2023-12-23T10:20:00.620Z,96876.58
2023-12-23T10:30:10.296Z,96888.46
2023-12-23T10:40:19.279Z,96883.57
2023-12-23T10:50:24.795Z,96906.48
2023-12-23T11:00:28.969Z,96902.75
2023-12-23T11:10:38.040Z,96905.50
2023-12-23T11:20:51.568Z,96913.69
2023-12-23T11:31:00.776Z,96923.58
2023-12-23T11:41:05.783Z,96928.30
2023-12-23T11:51:11.901Z,96930.92
2023-12-23T12:01:15.883Z,96935.34
2023-12-23T12:11:19.859Z,96951.09
2023-12-23T12:21:24.498Z,96960.39
2023-12-23T12:31:28.950Z,96978.02
2023-12-23T12:41:38.661Z,96975.14
2023-12-23T12:51:43.772Z,97007.33
2023-12-23T13:01:47.757Z,97022.73
2023-12-23T13:11:52.009Z,97043.39
2023-12-23T13:21:55.962Z,97054.54
2023-12-23T13:32:01.038Z,97065.52
2023-12-23T13:42:05.851Z,97080.79
2023-12-23T13:52:09.995Z,97093.00
2023-12-23T14:02:13.886Z,97101.33
2023-12-23T14:12:18.652Z,97123.98
2023-12-23T14:22:22.633Z,97142.17
2023-12-23T14:32:26.812Z,97161.30
2023-12-23T14:42:32.175Z,97180.66
2023-12-23T14:52:36.122Z,97195.23
2023-12-23T15:02:41.808Z,97213.98
2023-12-23T15:12:46.629Z,97227.48
2023-12-23T15:22:50.725Z,97244.83
2023-12-23T15:32:58.075Z,97254.89
2023-12-23T15:43:02.055Z,97277.64
2023-12-23T15:53:06.031Z,97294.73
2023-12-23T16:03:10.753Z,97311.49
2023-12-23T16:13:15.576Z,97331.33
2023-12-23T16:23:19.835Z,97350.27
2023-12-23T16:33:23.986Z,97365.21
2023-12-23T16:43:28.185Z,97391.04
2023-12-23T16:53:32.237Z,97409.77
2023-12-23T17:03:36.171Z,97419.18
2023-12-23T17:13:41.695Z,97428.92
2023-12-23T17:23:46.093Z,97427.52
2023-12-23T17:33:50.104Z,97435.80
2023-12-23T17:43:54.129Z,97452.09
2023-12-23T17:53:58.626Z,97464.67
2023-12-23T18:04:02.554Z,97471.40
2023-12-23T18:14:06.651Z,97481.38
2023-12-23T18:24:13.601Z,97492.00
2023-12-23T18:34:17.791Z,97502.65
2023-12-23T18:44:23.097Z,97505.59
2023-12-23T18:54:27.110Z,97515.78
2023-12-23T19:04:31.226Z,97533.05
2023-12-23T19:14:35.334Z,97546.95
2023-12-23T19:24:41.753Z,97556.66
2023-12-23T19:34:45.819Z,97572.98
2023-12-23T19:44:54.642Z,97591.80
2023-12-23T19:55:00.690Z,97605.82
2023-12-23T20:05:06.551Z,97616.04
2023-12-23T20:15:11.404Z,97630.38
2023-12-23T20:25:15.741Z,97640.31
2023-12-23T20:35:20.404Z,97653.69
2023-12-23T20:45:25.736Z,97664.95
2023-12-23T20:55:29.832Z,97665.67
2023-12-23T21:05:34.249Z,97672.11
2023-12-23T21:15:38.981Z,97690.29
2023-12-23T21:25:45.529Z,97708.52
2023-12-23T21:35:50.036Z,97717.77
2023-12-23T21:45:55.124Z,97727.54
2023-12-23T21:56:00.105Z,97736.42
2023-12-23T22:06:05.466Z,97750.52
2023-12-23T22:16:11.322Z,97761.20
2023-12-23T22:26:15.233Z,97765.89
2023-12-23T22:36:21.318Z,97771.17
2023-12-23T22:46:25.811Z,97790.13
2023-12-23T22:56:29.831Z,97794.74
2023-12-23T23:06:33.821Z,97809.77
2023-12-23T23:16:38.316Z,97830.84
2023-12-23T23:26:42.166Z,97846.33
2023-12-23T23:36:46.047Z,97861.89
2023-12-23T23:46:50.708Z,97871.70
2023-12-23T23:56:54.567Z,97883.31
